createdAt,value
2018-12-12T00:00:09.979Z,99886.00
2018-12-12T00:02:39.972Z,99890.00
2018-12-12T00:05:09.535Z,99891.00
2018-12-12T00:07:39.310Z,99891.00
2018-12-12T00:10:13.296Z,99891.00
2018-12-12T00:12:43.561Z,99892.00
2018-12-12T00:15:13.546Z,99898.00
2018-12-12T00:17:43.544Z,99892.00
2018-12-12T00:20:13.011Z,99893.00
2018-12-12T00:22:42.992Z,99898.00
2018-12-12T00:25:13.522Z,99901.00
2018-12-12T00:27:44.018Z,99900.00
2018-12-12T00:30:13.552Z,99904.00
2018-12-12T00:32:43.193Z,99908.00
2018-12-12T00:35:13.487Z,99901.00
2018-12-12T00:37:43.156Z,99903.00
2018-12-12T00:40:13.975Z,99896.00
2018-12-12T00:42:44.325Z,99892.00
2018-12-12T00:45:13.933Z,99898.00
2018-12-12T00:47:43.682Z,99908.00
2018-12-12T00:50:13.385Z,99916.00
2018-12-12T00:52:43.038Z,99913.00
2018-12-12T00:55:13.253Z,99911.00
2018-12-12T00:57:43.201Z,99921.00
2018-12-12T01:00:12.990Z,99927.00
2018-12-12T01:02:43.146Z,99923.00
2018-12-12T01:05:12.966Z,99922.00
2018-12-12T01:07:42.526Z,99924.00
2018-12-12T01:10:12.813Z,99931.00
2018-12-12T01:12:42.309Z,99920.00
2018-12-12T01:15:12.165Z,99927.00
2018-12-12T01:17:41.536Z,99928.00
2018-12-12T01:20:11.385Z,99931.00
2018-12-12T01:22:41.468Z,99936.00
2018-12-12T01:25:11.351Z,99940.00
2018-12-12T01:27:41.796Z,99937.00
2018-12-12T01:30:11.528Z,99936.00
2018-12-12T01:32:41.105Z,99939.00
2018-12-12T01:35:11.341Z,99935.00
2018-12-12T01:37:41.018Z,99941.00
2018-12-12T01:40:10.585Z,99942.00
2018-12-12T01:42:40.111Z,99941.00
2018-12-12T01:45:09.816Z,99951.00
2018-12-12T01:47:39.663Z,99945.00
2018-12-12T01:50:09.320Z,99950.00
2018-12-12T01:52:39.330Z,99954.00
2018-12-12T01:55:09.027Z,99951.00
2018-12-12T01:57:38.833Z,99948.00
2018-12-12T02:00:08.496Z,99946.00
2018-12-12T02:02:38.464Z,99951.00
2018-12-12T02:05:08.422Z,99944.00
2018-12-12T02:07:38.684Z,99966.00
2018-12-12T02:10:10.305Z,99950.00
2018-12-12T02:12:40.514Z,99956.00
2018-12-12T02:15:10.436Z,99951.00
2018-12-12T02:17:40.050Z,99961.00
2018-12-12T02:20:10.409Z,99956.00
2018-12-12T02:22:40.230Z,99955.00
2018-12-12T02:25:09.746Z,99960.00
2018-12-12T02:27:40.017Z,99962.00
2018-12-12T02:30:10.200Z,99955.00
2018-12-12T02:32:39.898Z,99964.00
2018-12-12T02:35:09.589Z,99958.00
2018-12-12T02:37:39.323Z,99968.00
2018-12-12T02:40:09.033Z,99958.00
2018-12-12T02:42:39.603Z,99963.00
2018-12-12T02:45:10.198Z,99967.00
2018-12-12T02:47:39.931Z,99967.00
2018-12-12T02:50:09.606Z,99974.00
2018-12-12T02:52:39.514Z,99966.00
2018-12-12T02:55:09.918Z,99968.00
2018-12-12T02:57:39.765Z,99972.00
2018-12-12T03:00:10.045Z,99976.00
2018-12-12T03:02:39.768Z,99986.00
2018-12-12T03:05:09.474Z,99981.00
2018-12-12T03:07:39.139Z,99985.00
2018-12-12T03:10:09.049Z,99990.00
2018-12-12T03:12:39.429Z,99982.00
2018-12-12T03:15:09.240Z,99990.00
2018-12-12T03:17:38.912Z,99981.00
2018-12-12T03:20:09.128Z,99994.00
2018-12-12T03:22:38.790Z,99994.00
2018-12-12T03:25:08.761Z,99995.00
2018-12-12T03:27:38.682Z,99995.00
2018-12-12T03:30:09.128Z,99995.00
2018-12-12T03:32:38.903Z,99995.00
2018-12-12T03:35:08.917Z,99986.00
2018-12-12T03:37:39.726Z,99989.00
2018-12-12T03:40:09.841Z,99992.00
2018-12-12T03:42:40.178Z,99998.00
2018-12-12T03:45:10.053Z,99998.00
2018-12-12T03:47:39.844Z,99995.00
2018-12-12T03:50:09.992Z,100002.00
2018-12-12T03:52:39.739Z,100009.00
2018-12-12T03:55:09.546Z,100002.00
2018-12-12T03:57:39.164Z,100010.00
2018-12-12T04:00:09.686Z,100010.00
2018-12-12T04:02:39.259Z,100009.00
2018-12-12T04:05:09.079Z,100012.00
2018-12-12T04:07:38.837Z,100009.00
2018-12-12T04:10:08.995Z,100007.00
2018-12-12T04:12:39.484Z,100009.00
2018-12-12T04:15:09.437Z,100008.00
2018-12-12T04:17:38.938Z,100005.00
2018-12-12T04:20:08.885Z,100002.00
2018-12-12T04:22:38.684Z,100011.00
2018-12-12T04:25:09.710Z,100016.00
2018-12-12T04:27:39.219Z,100012.00
2018-12-12T04:30:10.272Z,100019.00
2018-12-12T04:32:40.551Z,100023.00
2018-12-12T04:35:10.351Z,100021.00
2018-12-12T04:37:41.203Z,100017.00
2018-12-12T04:40:11.103Z,100024.00
2018-12-12T04:42:41.048Z,100015.00
2018-12-12T04:45:10.889Z,100020.00
2018-12-12T04:47:42.112Z,100017.00
2018-12-12T04:50:11.939Z,100023.00
2018-12-12T04:52:42.550Z,100027.00
2018-12-12T04:55:12.413Z,100030.00
2018-12-12T04:57:44.895Z,100025.00
2018-12-12T05:00:15.752Z,100031.00
2018-12-12T05:02:46.104Z,100032.00
2018-12-12T05:05:16.142Z,100027.00
2018-12-12T05:07:46.923Z,100019.00
2018-12-12T05:10:17.676Z,100021.00
2018-12-12T05:12:47.472Z,100031.00
2018-12-12T05:15:19.093Z,100026.00
2018-12-12T05:17:48.717Z,100031.00
2018-12-12T05:20:18.404Z,100031.00
2018-12-12T05:22:48.772Z,100032.00
2018-12-12T05:25:19.240Z,100038.00
2018-12-12T05:27:48.897Z,100048.00
2018-12-12T05:30:18.688Z,100041.00
2018-12-12T05:32:51.606Z,100044.00
2018-12-12T05:35:21.293Z,100043.00
2018-12-12T05:37:52.336Z,100050.00
2018-12-12T05:40:22.815Z,100047.00
2018-12-12T05:42:55.380Z,100046.00
2018-12-12T05:45:25.304Z,100059.00
2018-12-12T05:47:55.552Z,100059.00
2018-12-12T05:50:25.143Z,100060.00
2018-12-12T05:52:54.919Z,100051.00
2018-12-12T05:55:25.427Z,100061.00
2018-12-12T05:57:54.923Z,100058.00
2018-12-12T06:00:24.501Z,100060.00
2018-12-12T06:02:55.107Z,100060.00
2018-12-12T06:05:24.695Z,100064.00
2018-12-12T06:07:54.421Z,100065.00
2018-12-12T06:10:24.136Z,100067.00
2018-12-12T06:12:54.825Z,100061.00
2018-12-12T06:15:24.387Z,100069.00
2018-12-12T06:17:54.185Z,100070.00
2018-12-12T06:20:23.847Z,100076.00
2018-12-12T06:22:54.045Z,100079.00
2018-12-12T06:25:24.703Z,100070.00
2018-12-12T06:27:55.276Z,100080.00
2018-12-12T06:30:27.141Z,100068.00
2018-12-12T06:32:57.110Z,100083.00
2018-12-12T06:35:26.823Z,100079.00
2018-12-12T06:37:56.701Z,100081.00
2018-12-12T06:40:26.557Z,100090.00
2018-12-12T06:42:56.279Z,100091.00
2018-12-12T06:45:26.020Z,100081.00
2018-12-12T06:47:55.558Z,100079.00
2018-12-12T06:50:25.068Z,100086.00
2018-12-12T06:52:54.965Z,100089.00
2018-12-12T06:55:24.888Z,100091.00
2018-12-12T06:57:55.154Z,100101.00
2018-12-12T07:00:24.952Z,100098.00
2018-12-12T07:02:54.552Z,100095.00
2018-12-12T07:05:24.072Z,100105.00
2018-12-12T07:07:54.018Z,100108.00
2018-12-12T07:10:23.544Z,100107.00
2018-12-12T07:12:53.387Z,100103.00
2018-12-12T07:15:22.902Z,100117.00
2018-12-12T07:17:52.432Z,100117.00
2018-12-12T07:20:21.966Z,100112.00
2018-12-12T07:22:51.721Z,100120.00
2018-12-12T07:25:21.539Z,100118.00
2018-12-12T07:27:51.669Z,100121.00
2018-12-12T07:30:21.465Z,100133.00
2018-12-12T07:32:51.120Z,100125.00
2018-12-12T07:35:20.973Z,100136.00
2018-12-12T07:37:50.558Z,100130.00
2018-12-12T07:40:21.234Z,100145.00
2018-12-12T07:42:51.504Z,100142.00
2018-12-12T07:45:21.076Z,100147.00
2018-12-12T07:47:50.534Z,100146.00
2018-12-12T07:50:20.032Z,100153.00
2018-12-12T07:52:49.572Z,100158.00
2018-12-12T07:55:19.035Z,100154.00
2018-12-12T07:57:48.632Z,100155.00
2018-12-12T08:00:18.411Z,100160.00
2018-12-12T08:02:48.443Z,100164.00
2018-12-12T08:05:18.031Z,100167.00
2018-12-12T08:07:47.686Z,100165.00
2018-12-12T08:10:17.480Z,100169.00
2018-12-12T08:12:47.296Z,100172.00
2018-12-12T08:15:17.026Z,100180.00
2018-12-12T08:17:46.526Z,100177.00
2018-12-12T08:20:16.256Z,100176.00
2018-12-12T08:22:45.844Z,100174.00
2018-12-12T08:25:15.345Z,100173.00
2018-12-12T08:27:44.889Z,100173.00
2018-12-12T08:30:14.311Z,100188.00
2018-12-12T08:32:44.579Z,100180.00
2018-12-12T08:35:14.152Z,100180.00
2018-12-12T08:37:43.695Z,100192.00
2018-12-12T08:40:14.006Z,100185.00
2018-12-12T08:42:43.486Z,100191.00
2018-12-12T08:45:12.931Z,100188.00
2018-12-12T08:47:42.635Z,100197.00
2018-12-12T08:50:13.185Z,100191.00
2018-12-12T08:52:42.719Z,100203.00
2018-12-12T08:55:17.595Z,100209.00
2018-12-12T08:57:44.595Z,100206.00
2018-12-12T09:00:14.323Z,100211.00
2018-12-12T09:02:43.943Z,100218.00
2018-12-12T09:05:13.356Z,100217.00
2018-12-12T09:07:42.809Z,100211.00
2018-12-12T09:10:12.961Z,100220.00
2018-12-12T09:12:42.487Z,100223.00
2018-12-12T09:15:12.636Z,100229.00
2018-12-12T09:17:42.181Z,100229.00
2018-12-12T09:20:11.598Z,100242.00
2018-12-12T09:22:41.143Z,100232.00
2018-12-12T09:25:11.355Z,100232.00
2018-12-12T09:27:41.044Z,100226.00
2018-12-12T09:30:10.877Z,100237.00
2018-12-12T09:32:40.605Z,100242.00
2018-12-12T09:35:10.200Z,100245.00
2018-12-12T09:37:40.147Z,100246.00
2018-12-12T09:40:09.769Z,100247.00
2018-12-12T09:42:39.554Z,100244.00
2018-12-12T09:45:09.332Z,100237.00
2018-12-12T09:47:40.530Z,100242.00
2018-12-12T09:50:10.284Z,100241.00
2018-12-12T09:52:39.852Z,100252.00
2018-12-12T09:55:09.384Z,100248.00
2018-12-12T09:57:40.139Z,100241.00
2018-12-12T10:00:10.398Z,100243.00
2018-12-12T10:02:39.860Z,100242.00
2018-12-12T10:05:09.565Z,100247.00
2018-12-12T10:07:40.095Z,100249.00
2018-12-12T10:10:09.637Z,100246.00
2018-12-12T10:12:39.326Z,100244.00
2018-12-12T10:15:09.657Z,100245.00
2018-12-12T10:17:39.921Z,100249.00
2018-12-12T10:20:09.595Z,100238.00
2018-12-12T10:22:39.368Z,100242.00
2018-12-12T10:25:09.215Z,100241.00
2018-12-12T10:27:38.776Z,100247.00
2018-12-12T10:30:09.680Z,100238.00
2018-12-12T10:32:39.202Z,100245.00
2018-12-12T10:35:08.749Z,100242.00
2018-12-12T10:37:38.188Z,100244.00
2018-12-12T10:40:08.026Z,100243.00
2018-12-12T10:42:38.197Z,100247.00
2018-12-12T10:45:08.791Z,100252.00
2018-12-12T10:47:38.315Z,100248.00
2018-12-12T10:50:10.008Z,100241.00
2018-12-12T10:52:39.573Z,100248.00
2018-12-12T10:55:09.311Z,100241.00
2018-12-12T10:57:38.823Z,100246.00
2018-12-12T11:00:12.928Z,100236.00
2018-12-12T11:02:51.210Z,100241.00
2018-12-12T11:05:20.844Z,100240.00
2018-12-12T11:07:50.416Z,100240.00
2018-12-12T11:10:20.617Z,100237.00
2018-12-12T11:12:50.303Z,100253.00
2018-12-12T11:15:19.865Z,100243.00
2018-12-12T11:17:49.569Z,100249.00
2018-12-12T11:20:19.422Z,100245.00
2018-12-12T11:22:48.991Z,100247.00
2018-12-12T11:25:18.504Z,100242.00
2018-12-12T11:27:48.184Z,100262.00
2018-12-12T11:30:17.923Z,100245.00
2018-12-12T11:32:47.394Z,100242.00
2018-12-12T11:35:17.336Z,100245.00
2018-12-12T11:37:47.109Z,100233.00
2018-12-12T11:40:16.660Z,100236.00
2018-12-12T11:42:46.356Z,100241.00
2018-12-12T11:45:16.802Z,100236.00
2018-12-12T11:47:46.783Z,100237.00
2018-12-12T11:50:16.818Z,100243.00
2018-12-12T11:52:46.383Z,100238.00
2018-12-12T11:55:15.774Z,100245.00
2018-12-12T11:57:45.696Z,100245.00
2018-12-12T12:00:15.588Z,100249.00
2018-12-12T12:02:45.568Z,100241.00
2018-12-12T12:05:15.337Z,100243.00
2018-12-12T12:07:45.160Z,100249.00
2018-12-12T12:10:15.161Z,100245.00
2018-12-12T12:12:44.910Z,100245.00
2018-12-12T12:15:14.404Z,100243.00
2018-12-12T12:17:44.424Z,100246.00
2018-12-12T12:20:13.990Z,100234.00
2018-12-12T12:22:44.076Z,100240.00
2018-12-12T12:25:13.713Z,100242.00
2018-12-12T12:27:44.027Z,100238.00
2018-12-12T12:30:13.680Z,100246.00
2018-12-12T12:32:44.147Z,100238.00
2018-12-12T12:35:14.280Z,100237.00
2018-12-12T12:37:43.800Z,100249.00
2018-12-12T12:40:13.452Z,100246.00
2018-12-12T12:42:44.506Z,100246.00
2018-12-12T12:45:14.038Z,100246.00
2018-12-12T12:47:44.375Z,100248.00
2018-12-12T12:50:14.882Z,100243.00
2018-12-12T12:52:44.898Z,100237.00
2018-12-12T12:55:14.396Z,100242.00
2018-12-12T12:57:43.951Z,100249.00
2018-12-12T13:00:13.791Z,100243.00
2018-12-12T13:02:43.336Z,100232.00
2018-12-12T13:05:14.017Z,100230.00
2018-12-12T13:07:44.575Z,100232.00
2018-12-12T13:10:14.311Z,100237.00
2018-12-12T13:12:44.810Z,100240.00
2018-12-12T13:15:14.955Z,100243.00
2018-12-12T13:17:44.526Z,100238.00
2018-12-12T13:20:14.513Z,100240.00
2018-12-12T13:22:44.184Z,100242.00
2018-12-12T13:25:14.056Z,100237.00
2018-12-12T13:27:43.602Z,100242.00
2018-12-12T13:30:13.283Z,100238.00
2018-12-12T13:32:42.964Z,100251.00
2018-12-12T13:35:12.559Z,100248.00
2018-12-12T13:37:42.226Z,100249.00
2018-12-12T13:40:11.932Z,100253.00
2018-12-12T13:42:41.404Z,100259.00
2018-12-12T13:45:11.572Z,100256.00
2018-12-12T13:47:41.122Z,100264.00
2018-12-12T13:50:10.936Z,100266.00
2018-12-12T13:52:40.812Z,100266.00
2018-12-12T13:55:10.576Z,100262.00
2018-12-12T13:57:40.735Z,100261.00
2018-12-12T14:00:10.671Z,100272.00
2018-12-12T14:02:40.261Z,100263.00
2018-12-12T14:05:10.549Z,100265.00
2018-12-12T14:07:40.122Z,100276.00
2018-12-12T14:10:10.494Z,100272.00
2018-12-12T14:12:40.716Z,100275.00
2018-12-12T14:15:10.887Z,100268.00
2018-12-12T14:17:41.191Z,100272.00
2018-12-12T14:20:11.111Z,100267.00
2018-12-12T14:22:40.780Z,100264.00
2018-12-12T14:25:10.571Z,100271.00
2018-12-12T14:27:40.149Z,100271.00
2018-12-12T14:30:10.550Z,100277.00
2018-12-12T14:32:40.368Z,100262.00
2018-12-12T14:35:11.340Z,100268.00
2018-12-12T14:37:40.744Z,100269.00
2018-12-12T14:40:10.686Z,100272.00
2018-12-12T14:42:41.007Z,100271.00
2018-12-12T14:45:11.723Z,100262.00
2018-12-12T14:47:42.532Z,100267.00
2018-12-12T14:50:12.305Z,100264.00
2018-12-12T14:52:42.867Z,100266.00
2018-12-12T14:55:12.419Z,100266.00
2018-12-12T14:57:42.091Z,100270.00
2018-12-12T15:00:12.388Z,100269.00
2018-12-12T15:02:41.984Z,100271.00
2018-12-12T15:05:12.206Z,100273.00
2018-12-12T15:07:42.775Z,100272.00
2018-12-12T15:10:15.742Z,100273.00
2018-12-12T15:12:52.190Z,100271.00
2018-12-12T15:15:23.963Z,100269.00
2018-12-12T15:17:57.990Z,100267.00
2018-12-12T15:20:31.173Z,100280.00
2018-12-12T15:23:02.154Z,100282.00
2018-12-12T15:25:32.005Z,100279.00
2018-12-12T15:28:04.340Z,100285.00
2018-12-12T15:30:35.124Z,100287.00
2018-12-12T15:33:05.283Z,100288.00
2018-12-12T15:35:36.871Z,100287.00
2018-12-12T15:38:07.178Z,100285.00
2018-12-12T15:40:37.049Z,100288.00
2018-12-12T15:43:06.928Z,100295.00
2018-12-12T15:45:36.600Z,100293.00
2018-12-12T15:48:06.392Z,100292.00
2018-12-12T15:50:36.145Z,100289.00
2018-12-12T15:53:06.042Z,100283.00
2018-12-12T15:55:35.655Z,100287.00
2018-12-12T15:58:05.546Z,100288.00
2018-12-12T16:00:35.540Z,100284.00
2018-12-12T16:03:05.733Z,100292.00
2018-12-12T16:05:36.167Z,100294.00
2018-12-12T16:08:06.539Z,100308.00
2018-12-12T16:10:36.454Z,100301.00
2018-12-12T16:13:07.042Z,100295.00
2018-12-12T16:15:37.361Z,100296.00
2018-12-12T16:18:07.899Z,100290.00
2018-12-12T16:20:37.594Z,100297.00
2018-12-12T16:23:07.437Z,100295.00
2018-12-12T16:25:37.611Z,100300.00
2018-12-12T16:28:07.317Z,100291.00
2018-12-12T16:30:36.913Z,100296.00
2018-12-12T16:33:06.836Z,100293.00
2018-12-12T16:35:37.290Z,100299.00
2018-12-12T16:38:07.221Z,100293.00
2018-12-12T16:40:37.083Z,100298.00
2018-12-12T16:43:06.822Z,100293.00
2018-12-12T16:45:36.431Z,100299.00
2018-12-12T16:48:07.846Z,100301.00
2018-12-12T16:50:37.673Z,100304.00
2018-12-12T16:53:07.307Z,100308.00
2018-12-12T16:55:36.947Z,100306.00
2018-12-12T16:58:07.575Z,100310.00
2018-12-12T17:00:37.151Z,100305.00
2018-12-12T17:03:07.469Z,100310.00
2018-12-12T17:05:37.270Z,100305.00
2018-12-12T17:08:07.875Z,100308.00
2018-12-12T17:10:37.525Z,100313.00
2018-12-12T17:13:07.213Z,100323.00
2018-12-12T17:15:37.706Z,100310.00
2018-12-12T17:18:07.456Z,100315.00
2018-12-12T17:20:37.049Z,100324.00
2018-12-12T17:23:06.705Z,100322.00
2018-12-12T17:25:36.416Z,100318.00
2018-12-12T17:28:06.200Z,100315.00
2018-12-12T17:30:36.309Z,100320.00
2018-12-12T17:33:06.156Z,100321.00
2018-12-12T17:35:35.785Z,100312.00
2018-12-12T17:38:05.732Z,100322.00
2018-12-12T17:40:35.272Z,100321.00
2018-12-12T17:43:05.022Z,100317.00
2018-12-12T17:45:35.072Z,100314.00
2018-12-12T17:48:05.033Z,100315.00
2018-12-12T17:50:34.658Z,100311.00
2018-12-12T17:53:04.234Z,100318.00
2018-12-12T17:55:33.787Z,100324.00
2018-12-12T17:58:03.351Z,100318.00
2018-12-12T18:00:32.863Z,100322.00
2018-12-12T18:03:03.503Z,100324.00
2018-12-12T18:05:33.156Z,100321.00
2018-12-12T18:08:02.927Z,100325.00
2018-12-12T18:10:32.872Z,100320.00
2018-12-12T18:13:03.494Z,100326.00
2018-12-12T18:15:34.119Z,100323.00
2018-12-12T18:18:04.004Z,100337.00
2018-12-12T18:20:33.677Z,100332.00
2018-12-12T18:23:03.365Z,100344.00
2018-12-12T18:25:33.134Z,100339.00
2018-12-12T18:28:02.776Z,100338.00
2018-12-12T18:30:32.552Z,100343.00
2018-12-12T18:33:02.315Z,100346.00
2018-12-12T18:35:32.041Z,100353.00
2018-12-12T18:38:01.779Z,100354.00
2018-12-12T18:40:31.435Z,100347.00
2018-12-12T18:43:01.483Z,100352.00
2018-12-12T18:45:31.352Z,100338.00
2018-12-12T18:48:01.674Z,100340.00
2018-12-12T18:50:31.517Z,100350.00
2018-12-12T18:53:03.190Z,100351.00
2018-12-12T18:55:33.253Z,100357.00
2018-12-12T18:58:02.780Z,100360.00
2018-12-12T19:00:32.523Z,100360.00
2018-12-12T19:03:02.018Z,100353.00
2018-12-12T19:05:31.752Z,100363.00
2018-12-12T19:08:01.311Z,100374.00
2018-12-12T19:10:31.966Z,100363.00
2018-12-12T19:13:02.898Z,100361.00
2018-12-12T19:15:33.308Z,100362.00
2018-12-12T19:18:02.996Z,100360.00
2018-12-12T19:20:32.792Z,100361.00
2018-12-12T19:23:03.737Z,100365.00
2018-12-12T19:25:33.597Z,100375.00
2018-12-12T19:28:03.304Z,100372.00
2018-12-12T19:30:33.826Z,100379.00
2018-12-12T19:33:04.079Z,100379.00
2018-12-12T19:35:35.642Z,100381.00
2018-12-12T19:38:06.468Z,100385.00
2018-12-12T19:40:36.134Z,100382.00
2018-12-12T19:43:05.935Z,100388.00
2018-12-12T19:45:35.817Z,100389.00
2018-12-12T19:48:06.132Z,100389.00
2018-12-12T19:50:35.950Z,100390.00
2018-12-12T19:53:05.941Z,100389.00
2018-12-12T19:55:35.528Z,100383.00
2018-12-12T19:58:05.779Z,100378.00
2018-12-12T20:00:36.363Z,100376.00
2018-12-12T20:03:06.272Z,100381.00
2018-12-12T20:05:41.404Z,100377.00
2018-12-12T20:08:09.400Z,100377.00
2018-12-12T20:10:39.243Z,100379.00
2018-12-12T20:13:09.124Z,100384.00
2018-12-12T20:15:45.984Z,100382.00
2018-12-12T20:18:15.771Z,100383.00
2018-12-12T20:20:46.555Z,100387.00
2018-12-12T20:23:18.441Z,100390.00
2018-12-12T20:25:48.781Z,100387.00
2018-12-12T20:28:18.991Z,100391.00
2018-12-12T20:30:49.545Z,100383.00
2018-12-12T20:33:19.393Z,100392.00
2018-12-12T20:35:49.144Z,100389.00
2018-12-12T20:38:18.710Z,100396.00
2018-12-12T20:40:48.408Z,100393.00
2018-12-12T20:43:18.214Z,100389.00
2018-12-12T20:45:48.173Z,100389.00
2018-12-12T20:48:18.013Z,100395.00
2018-12-12T20:50:47.718Z,100404.00
2018-12-12T20:53:19.016Z,100401.00
2018-12-12T20:55:48.720Z,100395.00
2018-12-12T20:58:18.358Z,100391.00
2018-12-12T21:00:48.187Z,100399.00
2018-12-12T21:03:18.939Z,100392.00
2018-12-12T21:05:54.350Z,100392.00
2018-12-12T21:08:20.003Z,100395.00
2018-12-12T21:10:49.662Z,100405.00
2018-12-12T21:13:19.557Z,100398.00
2018-12-12T21:15:49.138Z,100398.00
2018-12-12T21:18:18.707Z,100396.00
2018-12-12T21:20:48.207Z,100396.00
2018-12-12T21:23:17.803Z,100404.00
2018-12-12T21:25:47.563Z,100397.00
2018-12-12T21:28:17.029Z,100391.00
2018-12-12T21:30:46.665Z,100383.00
2018-12-12T21:33:16.147Z,100387.00
2018-12-12T21:35:45.669Z,100388.00
2018-12-12T21:38:15.439Z,100386.00
2018-12-12T21:40:44.938Z,100379.00
2018-12-12T21:43:14.477Z,100393.00
2018-12-12T21:45:43.943Z,100390.00
2018-12-12T21:48:13.574Z,100390.00
2018-12-12T21:50:43.184Z,100396.00
2018-12-12T21:53:12.763Z,100393.00
2018-12-12T21:55:42.199Z,100409.00
2018-12-12T21:58:11.961Z,100399.00
2018-12-12T22:00:41.381Z,100403.00
2018-12-12T22:03:10.932Z,100401.00
2018-12-12T22:05:40.427Z,100406.00
2018-12-12T22:08:10.622Z,100393.00
2018-12-12T22:10:40.313Z,100388.00
2018-12-12T22:13:09.908Z,100397.00
2018-12-12T22:15:40.107Z,100392.00
2018-12-12T22:18:09.670Z,100394.00
2018-12-12T22:20:39.192Z,100400.00
2018-12-12T22:23:08.713Z,100400.00
2018-12-12T22:25:38.315Z,100397.00
2018-12-12T22:28:08.535Z,100399.00
2018-12-12T22:30:38.246Z,100402.00
2018-12-12T22:35:46.923Z,100395.00
2018-12-12T22:38:16.443Z,100401.00
2018-12-12T22:40:45.910Z,100394.00
2018-12-12T22:43:15.585Z,100396.00
2018-12-12T22:45:45.209Z,100399.00
2018-12-12T22:48:20.645Z,100400.00
2018-12-12T22:50:46.725Z,100391.00
2018-12-12T22:53:16.182Z,100393.00
2018-12-12T22:55:45.612Z,100391.00
2018-12-12T22:58:15.273Z,100386.00
2018-12-12T23:00:49.905Z,100386.00
2018-12-12T23:03:19.564Z,100387.00
2018-12-12T23:05:49.060Z,100388.00
2018-12-12T23:08:18.556Z,100394.00
2018-12-12T23:10:48.036Z,100391.00
2018-12-12T23:13:17.517Z,100392.00
2018-12-12T23:15:47.093Z,100391.00
2018-12-12T23:18:16.761Z,100391.00
2018-12-12T23:20:46.358Z,100388.00
2018-12-12T23:23:15.940Z,100393.00
2018-12-12T23:25:45.614Z,100387.00
2018-12-12T23:28:15.222Z,100389.00
2018-12-12T23:30:44.751Z,100386.00
2018-12-12T23:33:14.342Z,100390.00
2018-12-12T23:35:43.848Z,100387.00
2018-12-12T23:38:13.432Z,100392.00
2018-12-12T23:40:42.940Z,100383.00
2018-12-12T23:43:12.454Z,100389.00
2018-12-12T23:45:41.884Z,100383.00
2018-12-12T23:48:11.493Z,100382.00
2018-12-12T23:50:41.127Z,100383.00
2018-12-12T23:53:10.629Z,100377.00
2018-12-12T23:55:40.139Z,100376.00
2018-12-12T23:58:09.629Z,100382.00
